createdAt,value
2024-04-16T00:03:54.421Z,2.70
2024-04-16T00:08:57.536Z,3.20
2024-04-16T00:14:00.639Z,3.50
2024-04-16T00:19:03.995Z,3.10
2024-04-16T00:24:07.277Z,2.40
2024-04-16T00:29:10.289Z,2.90
2024-04-16T00:34:13.304Z,3.20
2024-04-16T00:39:16.208Z,3.30
2024-04-16T00:44:19.608Z,3.10
2024-04-16T00:49:23.244Z,3.10
2024-04-16T00:54:26.946Z,3.40
2024-04-16T00:59:32.368Z,4.00
2024-04-16T01:04:35.416Z,4.30
2024-04-16T01:09:38.433Z,4.60
2024-04-16T01:14:42.050Z,4.70
2024-04-16T01:19:44.970Z,4.30
2024-04-16T01:24:47.979Z,4.50
2024-04-16T01:29:50.977Z,4.70
2024-04-16T01:34:53.834Z,6.40
2024-04-16T01:39:56.884Z,5.50
2024-04-16T01:45:00.810Z,6.20
2024-04-16T01:50:04.538Z,5.80
2024-04-16T01:55:07.675Z,4.90
2024-04-16T02:00:11.597Z,5.40
2024-04-16T02:05:14.478Z,4.80
2024-04-16T02:10:17.526Z,5.40
2024-04-16T02:15:21.413Z,6.20
2024-04-16T02:20:24.409Z,5.60
2024-04-16T02:25:27.285Z,4.70
2024-04-16T02:30:30.539Z,5.70
2024-04-16T02:35:33.954Z,5.70
2024-04-16T02:40:37.616Z,6.60
2024-04-16T02:45:40.575Z,6.00
2024-04-16T02:50:47.273Z,4.60
2024-04-16T02:55:50.187Z,5.30
2024-04-16T03:00:53.105Z,5.20
2024-04-16T03:05:56.948Z,5.80
2024-04-16T03:11:01.055Z,6.60
2024-04-16T03:16:07.960Z,5.80
2024-04-16T03:21:10.938Z,5.60
2024-04-16T03:26:13.738Z,5.60
2024-04-16T03:31:16.672Z,6.50
2024-04-16T03:36:19.763Z,6.30
2024-04-16T03:41:24.010Z,7.60
2024-04-16T03:46:28.310Z,8.10
2024-04-16T03:51:31.332Z,9.20
2024-04-16T03:56:34.139Z,8.80
2024-04-16T04:01:37.077Z,8.50
2024-04-16T04:06:40.264Z,8.50
2024-04-16T04:11:43.161Z,6.40
2024-04-16T04:16:46.065Z,5.50
2024-04-16T04:21:48.972Z,6.00
2024-04-16T04:26:51.782Z,5.80
2024-04-16T04:31:54.697Z,6.90
2024-04-16T04:36:57.675Z,7.40
2024-04-16T04:42:00.587Z,7.80
2024-04-16T04:47:03.918Z,8.00
2024-04-16T04:52:06.815Z,9.40
2024-04-16T04:57:10.235Z,9.20
2024-04-16T05:02:13.348Z,5.60
2024-04-16T05:07:16.375Z,6.30
2024-04-16T05:12:19.341Z,6.70
2024-04-16T05:17:23.026Z,7.10
2024-04-16T05:22:26.212Z,7.00
2024-04-16T05:27:31.985Z,5.30
2024-04-16T05:32:35.079Z,3.30
2024-04-16T05:37:38.533Z,2.90
2024-04-16T05:42:42.294Z,2.00
2024-04-16T05:47:45.400Z,1.80
2024-04-16T05:52:48.406Z,1.50
2024-04-16T05:57:51.523Z,1.40
2024-04-16T06:02:54.937Z,1.50
2024-04-16T06:07:58.065Z,1.30
2024-04-16T06:13:01.177Z,1.70
2024-04-16T06:18:10.639Z,1.10
2024-04-16T06:23:13.720Z,1.40
2024-04-16T06:28:16.665Z,0.80
2024-04-16T06:33:20.420Z,0.60
2024-04-16T06:38:26.123Z,0.50
2024-04-16T06:43:29.455Z,0.70
2024-04-16T06:48:32.692Z,0.50
2024-04-16T06:53:35.650Z,0.90
2024-04-16T06:58:38.608Z,0.80
2024-04-16T07:03:41.706Z,1.20
2024-04-16T07:08:44.775Z,1.60
2024-04-16T07:13:47.768Z,1.60
2024-04-16T07:18:50.893Z,1.30
2024-04-16T07:23:55.598Z,1.10
2024-04-16T07:28:58.662Z,1.10
2024-04-16T07:34:01.785Z,1.90
2024-04-16T07:39:04.759Z,1.60
2024-04-16T07:44:07.766Z,1.50
2024-04-16T07:49:10.688Z,1.60
2024-04-16T07:54:13.780Z,1.10
2024-04-16T07:59:16.697Z,1.40
2024-04-16T08:04:19.789Z,1.70
2024-04-16T08:09:22.802Z,1.20
2024-04-16T08:14:25.900Z,1.20
2024-04-16T08:19:28.820Z,1.20
2024-04-16T08:24:31.717Z,1.50
2024-04-16T08:29:34.632Z,1.40
2024-04-16T08:34:41.516Z,1.40
2024-04-16T08:39:44.448Z,1.10
2024-04-16T08:44:48.900Z,1.50
2024-04-16T08:49:53.484Z,1.20
2024-04-16T08:54:57.771Z,1.90
2024-04-16T09:00:00.774Z,1.10
2024-04-16T09:05:05.556Z,1.30
2024-04-16T09:10:25.471Z,1.60
2024-04-16T09:15:28.508Z,1.30
2024-04-16T09:20:31.636Z,1.90
2024-04-16T09:25:40.689Z,1.60
2024-04-16T09:30:54.745Z,1.50
2024-04-16T09:35:57.960Z,1.70
2024-04-16T09:41:01.074Z,1.80
2024-04-16T09:46:05.021Z,2.40
2024-04-16T09:51:09.794Z,2.30
2024-04-16T09:56:15.734Z,2.60
2024-04-16T10:01:21.772Z,2.40
2024-04-16T10:06:25.249Z,2.20
2024-04-16T10:11:32.108Z,1.80
2024-04-16T10:16:35.943Z,2.10
2024-04-16T10:21:40.286Z,2.00
2024-04-16T10:26:44.557Z,1.50
2024-04-16T10:31:55.789Z,2.20
2024-04-16T10:36:59.132Z,2.10
2024-04-16T10:42:05.090Z,2.10
2024-04-16T10:47:08.280Z,1.70
2024-04-16T10:52:13.798Z,1.90
2024-04-16T10:57:18.008Z,2.00
2024-04-16T11:02:21.552Z,1.60
2024-04-16T11:07:25.777Z,1.70
2024-04-16T11:12:29.081Z,1.40
2024-04-16T11:17:32.714Z,1.40
2024-04-16T11:22:36.945Z,1.90
2024-04-16T11:27:39.934Z,1.60
2024-04-16T11:32:43.180Z,1.60
2024-04-16T11:37:46.620Z,1.80
2024-04-16T11:42:50.581Z,2.10
2024-04-16T11:47:53.432Z,1.80
2024-04-16T11:52:56.396Z,1.60
2024-04-16T11:57:59.413Z,1.60
2024-04-16T12:03:03.228Z,1.90
2024-04-16T12:08:10.352Z,1.60
2024-04-16T12:13:14.789Z,1.50
2024-04-16T12:18:17.904Z,1.10
2024-04-16T12:23:20.887Z,1.00
2024-04-16T12:28:23.927Z,1.10
2024-04-16T12:33:27.290Z,1.30
2024-04-16T12:38:33.501Z,1.10
2024-04-16T12:43:36.587Z,1.20
2024-04-16T12:48:42.541Z,1.30
2024-04-16T12:53:45.687Z,1.90
2024-04-16T12:58:49.187Z,1.80
2024-04-16T13:03:52.329Z,1.90
2024-04-16T13:08:55.434Z,2.20
2024-04-16T13:13:58.575Z,2.60
2024-04-16T13:19:01.848Z,1.80
2024-04-16T13:24:05.381Z,1.70
2024-04-16T13:29:08.572Z,2.90
2024-04-16T13:34:11.639Z,2.70
2024-04-16T13:39:14.798Z,6.70
2024-04-16T13:44:17.939Z,13.70
2024-04-16T13:49:21.276Z,12.60
2024-04-16T13:54:24.437Z,3.10
2024-04-16T13:59:27.435Z,3.20
2024-04-16T14:04:30.480Z,8.90
2024-04-16T14:09:33.764Z,24.90
2024-04-16T14:14:36.968Z,28.70
2024-04-16T14:19:41.481Z,8.50
2024-04-16T14:24:45.217Z,3.00
2024-04-16T14:29:48.350Z,3.80
2024-04-16T14:34:51.338Z,2.40
2024-04-16T14:39:54.164Z,1.90
2024-04-16T14:44:57.269Z,1.60
2024-04-16T14:50:00.401Z,1.50
2024-04-16T14:55:03.593Z,2.00
2024-04-16T15:00:07.438Z,2.70
2024-04-16T15:05:11.036Z,2.30
2024-04-16T15:10:14.264Z,1.10
2024-04-16T15:15:19.777Z,1.80
2024-04-16T15:20:24.348Z,1.60
2024-04-16T15:25:27.524Z,1.70
2024-04-16T15:30:30.886Z,1.90
2024-04-16T15:35:49.639Z,2.20
2024-04-16T15:40:52.689Z,3.50
2024-04-16T15:45:55.807Z,3.10
2024-04-16T15:50:59.092Z,4.30
2024-04-16T15:56:02.570Z,3.20
2024-04-16T16:01:09.295Z,5.30
2024-04-16T16:06:12.342Z,5.20
2024-04-16T16:11:16.680Z,3.00
2024-04-16T16:16:19.993Z,6.70
2024-04-16T16:21:23.607Z,4.00
2024-04-16T16:26:27.207Z,2.30
2024-04-16T16:31:35.239Z,2.10
2024-04-16T16:36:38.741Z,3.20
2024-04-16T16:41:43.365Z,3.50
2024-04-16T16:46:46.914Z,3.40
2024-04-16T16:51:52.711Z,2.10
2024-04-16T16:56:56.229Z,2.30
2024-04-16T17:01:59.834Z,0.90
2024-04-16T17:07:03.688Z,1.50
2024-04-16T17:12:07.428Z,1.30
2024-04-16T17:17:12.964Z,1.00
2024-04-16T17:22:16.182Z,0.90
2024-04-16T17:27:19.558Z,0.90
2024-04-16T17:32:22.749Z,1.40
2024-04-16T17:37:25.812Z,1.60
2024-04-16T17:42:29.592Z,1.70
2024-04-16T17:47:32.926Z,1.80
2024-04-16T17:52:36.354Z,2.00
2024-04-16T17:57:42.028Z,1.60
2024-04-16T18:02:45.645Z,1.70
2024-04-16T18:07:48.736Z,1.90
2024-04-16T18:12:52.145Z,2.60
2024-04-16T18:17:55.100Z,1.70
2024-04-16T18:22:58.155Z,1.40
2024-04-16T18:28:01.167Z,1.30
2024-04-16T18:33:05.175Z,1.70
2024-04-16T18:38:10.155Z,3.00
2024-04-16T18:43:13.056Z,2.20
2024-04-16T18:48:18.501Z,2.40
2024-04-16T18:53:21.671Z,2.30
2024-04-16T18:58:24.835Z,2.50
2024-04-16T19:03:27.967Z,2.00
2024-04-16T19:08:31.063Z,2.10
2024-04-16T19:13:34.196Z,1.70
2024-04-16T19:18:38.435Z,1.70
2024-04-16T19:23:41.512Z,1.70
2024-04-16T19:28:44.784Z,1.50
2024-04-16T19:33:50.689Z,1.90
2024-04-16T19:38:53.635Z,1.90
2024-04-16T19:43:57.116Z,1.60
2024-04-16T19:49:00.133Z,1.90
2024-04-16T19:54:03.410Z,2.00
2024-04-16T19:59:06.552Z,2.10
2024-04-16T20:04:11.662Z,2.00
2024-04-16T20:09:16.386Z,2.20
2024-04-16T20:14:19.944Z,2.40
2024-04-16T20:19:22.997Z,2.20
2024-04-16T20:24:26.398Z,2.80
2024-04-16T20:29:30.244Z,2.50
2024-04-16T20:34:40.497Z,2.50
2024-04-16T20:39:50.525Z,2.40
2024-04-16T20:44:53.587Z,2.80
2024-04-16T20:49:56.887Z,2.50
2024-04-16T20:55:00.635Z,2.40
2024-04-16T21:00:04.208Z,4.30
2024-04-16T21:05:07.827Z,2.70
2024-04-16T21:10:11.011Z,3.70
2024-04-16T21:15:14.187Z,2.40
2024-04-16T21:20:20.061Z,2.50
2024-04-16T21:25:24.835Z,2.30
2024-04-16T21:30:27.734Z,2.30
2024-04-16T21:35:32.659Z,2.10
2024-04-16T21:40:35.593Z,3.10
2024-04-16T21:45:38.676Z,3.80
2024-04-16T21:50:41.571Z,3.40
2024-04-16T21:55:44.741Z,4.40
2024-04-16T22:00:47.792Z,3.70
2024-04-16T22:05:50.794Z,3.40
2024-04-16T22:11:03.711Z,2.70
2024-04-16T22:16:07.674Z,3.40
2024-04-16T22:21:10.776Z,3.20
2024-04-16T22:26:13.676Z,2.50
2024-04-16T22:31:16.808Z,2.90
2024-04-16T22:36:22.822Z,2.60
2024-04-16T22:41:26.283Z,3.00
2024-04-16T22:46:30.670Z,2.80
2024-04-16T22:51:33.731Z,3.20
2024-04-16T22:56:36.533Z,2.90
2024-04-16T23:01:39.463Z,2.70
2024-04-16T23:06:42.346Z,2.70
2024-04-16T23:11:45.400Z,2.60
2024-04-16T23:16:48.395Z,2.70
2024-04-16T23:21:51.360Z,2.90
2024-04-16T23:26:54.273Z,3.10
2024-04-16T23:31:57.367Z,2.90
2024-04-16T23:37:00.410Z,2.60
2024-04-16T23:42:03.389Z,2.80
2024-04-16T23:47:06.409Z,2.60
2024-04-16T23:52:09.409Z,2.60
2024-04-16T23:57:12.513Z,2.70
